Airfield :
LOGIN :

Register | Disclaimer

   EN    FR    IT 

 










Legend :    VFR   Marginal VFR   IFR   Intensive IFR   Very Intensive IFR
Visi :
Ceiling :
>= 8 km
>= 3000ft
5 to 8 km
1000 to 3000 ft
1500m to 5 km
500 to 1000 ft
800 to 1500m
200 to 500 ft
< 800m
< 200 ft
Symbols :   Thunderstorms  Fog  Heavy snow  Heavy precipitations  Wind > 20 kt
SIGMETs :     Misc.  Thunderstorms  Icing  Turbulence  Mountain Waves  Volcanic Ashes






- Airport Elevation : 119 ft
- IATA code : WAT


EIWF - Waterford

CURRENT METAR :
  • 071900Z VRB03KT 9999 FEW040 10/07 Q1019

EXPIRED METARs :
  • 071830Z 30011KT 270V340 9999 FEW040 11/07 Q1018
  • 071800Z 30013KT 250V330 9999 FEW040 12/07 Q1017
  • 071730Z 29011KT 270V340 9999 FEW040 11/06 Q1017
  • 071700Z 30006KT 270V330 9999 FEW020CB SCT044 12/08 Q1017
  • 071630Z 32009KT 9999 VCSH FEW020CB SCT040 13/08 Q1017

TAF TAF EIWF
Valid from the 07 at 18:00 until the 08 at 03:00 UTC


071700Z 0718/0803 29009KT 9999 FEW020 SCT040
PROB40
TEMPO 0718/0720 FEW018CB
ATIS : +353 51 877 000



MET'MAP, your aeronautical weather chart ! - Copyright ORBIFLY December 2007 - Disclaimer

ORBIFLY MET'MAP TEAM :

Programming & Development : Alexandra Zaïnal
Original concept : Baudouin d'Aumeries
Technical & hardware support : Manuel Goepfert
Assistance : Marc-Olivier Méhu




SOURCES & CREDITS :

   NOAA